M/V Nazim Bey — TCSW3 — position and weather

sailwx.info

Track history (hours):
 
Tides and Currents Weather Stations Pressure Air Temp Water Temp Dewpoint Dewpoint Depression Visibility Wind Speed Wind Dir Waves Ship Positions

M/V Nazim Bey

Last reported at 2017-Nov-19 00:10 UTC. Time now 2017-Nov-23 05:36 UTC.
Position N 37°52' E 015°60'.

Length 81 m; draft 4.9 m.

Type: Cargo ship. MMSI: 271000999.

Date/timePositionNaut miles runAvg speedWind from/ knotsBaromVisibWave heightAir tempDewpointWater temp
2017-Nov-19 00:10N 37°52' E 015°60'2 8.9
2017-Nov-18 23:56N 37°52' E 015°57'4 8.8
2017-Nov-18 23:31N 37°52' E 015°52'4 8.5
2017-Nov-18 22:59N 37°53' E 015°47'4 8.3
2017-Nov-18 22:30N 37°54' E 015°42'4 8.4
2017-Nov-18 22:00N 37°57' E 015°38'4 8.6
2017-Nov-18 21:30N 38°00' E 015°35'4 8.9
2017-Nov-18 21:00N 38°05' E 015°34'4 8.9
2017-Nov-18 20:30N 38°09' E 015°35'510.3
2017-Nov-18 20:00N 38°14' E 015°36'5 9.6
2017-Nov-18 19:30N 38°18' E 015°41'5 9.9
2017-Nov-18 19:00N 38°20' E 015°35'5 9.7
2017-Nov-18 18:30N 38°21' E 015°29'5 9.9
2017-Nov-18 18:00N 38°20' E 015°23'5 9.5
2017-Nov-18 17:30N 38°20' E 015°17'5 9.5
2017-Nov-18 17:00N 38°19' E 015°11'5 9.5
2017-Nov-18 16:30N 38°18' E 015°05'5 9.2
2017-Nov-18 16:00N 38°18' E 014°59'5 9.4
2017-Nov-18 15:30N 38°17' E 014°53'5 9.1
2017-Nov-18 15:00N 38°17' E 014°47'5 9.0
2017-Nov-18 14:30N 38°17' E 014°41'24 8.9
2017-Nov-18 11:50N 38°18' E 014°11'5 9.1
2017-Nov-18 11:19N 38°18' E 014°05'3 9.1
2017-Nov-18 11:00N 38°18' E 014°02'5 9.1
2017-Nov-18 10:30N 38°18' E 013°56'5 9.4
2017-Nov-18 10:01N 38°18' E 013°50'5 9.3
2017-Nov-18 09:31N 38°18' E 013°44'5 9.2
2017-Nov-18 09:00N 38°19' E 013°38'5 9.3
2017-Nov-18 08:30N 38°19' E 013°32'4 8.7
2017-Nov-18 08:00N 38°19' E 013°27'5 9.3
2017-Nov-18 07:31N 38°19' E 013°21'5 9.2
2017-Nov-18 07:01N 38°20' E 013°15'5 9.1
2017-Nov-18 06:30N 38°20' E 013°09'4 8.9
2017-Nov-18 06:00N 38°20' E 013°03'4 8.7
2017-Nov-18 05:31N 38°21' E 012°58'4 8.4
2017-Nov-18 05:01N 38°22' E 012°53'4 8.3
2017-Nov-18 04:29N 38°22' E 012°47'5 8.5
2017-Nov-18 03:53N 38°22' E 012°41'4 8.7
2017-Nov-18 03:28N 38°23' E 012°36'183 8.4
2017-Nov-17 05:34N 38°37' E 008°42'0 8.9
2017-Nov-17 05:30N 38°37' E 008°42'5 8.9
2017-Nov-17 04:59N 38°39' E 008°36'262 7.1
2017-Nov-15 15:58N 39°04' E 003°02'7 8.9
2017-Nov-15 15:11N 39°06' E 002°53'2 9.8
2017-Nov-15 15:00N 39°07' E 002°52'5 9.8
2017-Nov-15 14:30N 39°12' E 002°49'5 9.6
2017-Nov-15 14:00N 39°16' E 002°46'5 9.5
2017-Nov-15 13:30N 39°20' E 002°44'5 9.6
2017-Nov-15 13:00N 39°25' E 002°42'5 9.8
2017-Nov-15 12:30N 39°29' E 002°40'3 6.4
2017-Nov-15 12:00N 39°33' E 002°40'0 0.2
2017-Nov-15 11:30N 39°32' E 002°40'0 0.0
2017-Nov-15 11:00N 39°32' E 002°40'0 0.0
2017-Nov-15 10:30N 39°32' E 002°40'0 0.0
2017-Nov-15 10:00N 39°32' E 002°40'0 0.0
2017-Nov-15 09:30N 39°32' E 002°40'0 0.0
2017-Nov-15 09:00N 39°32' E 002°40'0 0.0
2017-Nov-15 08:30N 39°32' E 002°40'0 0.0
2017-Nov-15 08:00N 39°33' E 002°40'0 0.0
2017-Nov-15 07:30N 39°32' E 002°40'0 0.0
2017-Nov-15 06:54N 39°32' E 002°40'0 0.0
2017-Nov-15 06:30N 39°32' E 002°40'0 0.0
2017-Nov-15 06:00N 39°32' E 002°40'0 0.0
2017-Nov-15 05:30N 39°32' E 002°40'0 0.0
2017-Nov-15 05:00N 39°32' E 002°40'0 0.1
2017-Nov-15 04:30N 39°32' E 002°40'0 0.1
2017-Nov-15 04:00N 39°32' E 002°40'0 0.0
2017-Nov-15 03:30N 39°32' E 002°40'0 0.0
2017-Nov-15 03:00N 39°32' E 002°40'0 0.0
2017-Nov-15 02:30N 39°32' E 002°40'0 0.1
2017-Nov-15 02:00N 39°32' E 002°40'0 0.0
2017-Nov-15 01:27N 39°32' E 002°40'0 0.0
2017-Nov-15 01:00N 39°32' E 002°40'0 0.0
2017-Nov-15 00:27N 39°32' E 002°40'0 0.0
2017-Nov-15 00:00N 39°32' E 002°40'0 0.1
2017-Nov-14 23:30N 39°32' E 002°40'0 0.0
2017-Nov-14 23:00N 39°32' E 002°40'0 0.0
2017-Nov-14 22:30N 39°32' E 002°40'0 0.0
2017-Nov-14 22:00N 39°32' E 002°40'0 0.0
2017-Nov-14 21:30N 39°32' E 002°40'0 0.0
2017-Nov-14 21:00N 39°32' E 002°40'0 0.0
2017-Nov-14 20:30N 39°32' E 002°40'0 0.0
2017-Nov-14 20:00N 39°32' E 002°40'0 0.0
2017-Nov-14 19:30N 39°32' E 002°40'0 0.0
2017-Nov-14 19:00N 39°32' E 002°40'0 0.0
2017-Nov-14 18:30N 39°32' E 002°40'0 0.0
2017-Nov-14 18:00N 39°32' E 002°40'0 0.0
2017-Nov-14 17:30N 39°32' E 002°40'0 0.0
2017-Nov-14 17:00N 39°32' E 002°40'0 0.0
2017-Nov-14 16:30N 39°32' E 002°40'0 0.0
2017-Nov-14 16:00N 39°32' E 002°40'0 0.0
2017-Nov-14 15:30N 39°32' E 002°40'0 0.0
2017-Nov-14 15:00N 39°32' E 002°40'0 0.0
2017-Nov-14 14:30N 39°32' E 002°40'0 0.0
2017-Nov-14 14:00N 39°32' E 002°40'0 0.0
2017-Nov-14 13:30N 39°32' E 002°40'0 0.0
2017-Nov-14 13:00N 39°32' E 002°40'0 0.1
2017-Nov-14 12:30N 39°32' E 002°40'0 0.1
2017-Nov-14 12:00N 39°32' E 002°40'0 0.0
2017-Nov-14 11:30N 39°32' E 002°40'0 0.1
2017-Nov-14 11:00N 39°32' E 002°40'0 0.0
2017-Nov-14 10:27N 39°32' E 002°40'0 0.0
2017-Nov-14 10:00N 39°32' E 002°40'0 0.0
2017-Nov-14 09:30N 39°32' E 002°40'0 0.0
2017-Nov-14 09:00N 39°32' E 002°40'0 0.1
2017-Nov-14 08:30N 39°32' E 002°40'0 0.1
2017-Nov-14 08:00N 39°32' E 002°40'0 0.0
2017-Nov-14 07:27N 39°32' E 002°40'0 0.0
2017-Nov-14 07:00N 39°32' E 002°40'0 0.0
2017-Nov-14 06:30N 39°32' E 002°40'0 0.0
2017-Nov-14 05:57N 39°32' E 002°40'0 0.1
2017-Nov-14 05:30N 39°32' E 002°40'0 0.0
2017-Nov-14 05:00N 39°32' E 002°40'0 0.0
2017-Nov-14 04:30N 39°32' E 002°40'0 0.0
2017-Nov-14 04:00N 39°32' E 002°40'0 0.0
2017-Nov-14 03:27N 39°32' E 002°40'0 0.0
2017-Nov-14 03:00N 39°32' E 002°40'0 0.0
2017-Nov-14 02:30N 39°32' E 002°40'0 0.1
2017-Nov-14 02:00N 39°32' E 002°40'0 0.1
2017-Nov-14 01:30N 39°32' E 002°40'0 0.0
2017-Nov-14 01:00N 39°32' E 002°40'0 0.0
2017-Nov-14 00:30N 39°32' E 002°40'0 0.0
2017-Nov-14 00:00N 39°32' E 002°40'0 0.0
2017-Nov-13 23:27N 39°32' E 002°40'0 0.0
2017-Nov-13 23:00N 39°32' E 002°40'0 0.0
2017-Nov-13 22:30N 39°32' E 002°40'0 0.1
2017-Nov-13 21:57N 39°32' E 002°40'0 0.0
2017-Nov-13 01:57N 39°33' E 002°40'0 0.0
2017-Nov-13 01:30N 39°33' E 002°40'0 0.0
2017-Nov-13 00:57N 39°33' E 002°40'0 0.0
2017-Nov-13 00:30N 39°33' E 002°40'0 0.0
2017-Nov-13 00:00N 39°33' E 002°40'0 0.0
2017-Nov-12 23:21N 39°33' E 002°40'0 0.0
2017-Nov-12 22:57N 39°33' E 002°40'0 0.0
2017-Nov-12 22:27N 39°33' E 002°40'0 0.0
2017-Nov-12 22:00N 39°33' E 002°40'0 0.0
2017-Nov-12 21:30N 39°33' E 002°40'0 0.0
2017-Nov-12 21:00N 39°33' E 002°40'0 0.0
2017-Nov-12 20:27N 39°33' E 002°40'0 0.0
2017-Nov-12 20:00N 39°33' E 002°40'0 0.0
2017-Nov-12 19:30N 39°33' E 002°40'0 0.0
2017-Nov-12 19:00N 39°33' E 002°40'0 0.0
2017-Nov-12 18:30N 39°33' E 002°40'0 0.0
2017-Nov-12 18:00N 39°33' E 002°40'0 0.0
2017-Nov-12 17:30N 39°33' E 002°40'0 0.0
2017-Nov-12 17:00N 39°33' E 002°40'0 0.0
2017-Nov-12 16:30N 39°32' E 002°40'0 0.0
2017-Nov-12 16:00N 39°32' E 002°40'0 0.1
2017-Nov-12 15:30N 39°32' E 002°40'0 0.0
2017-Nov-12 14:57N 39°32' E 002°40'0 0.0
2017-Nov-12 14:27N 39°32' E 002°40'0 0.0
2017-Nov-12 14:00N 39°32' E 002°40'0 0.0
2017-Nov-12 13:30N 39°32' E 002°40'0 0.0
2017-Nov-12 13:00N 39°32' E 002°40'0 0.0
2017-Nov-12 12:30N 39°32' E 002°40'0 0.0
2017-Nov-12 11:57N 39°32' E 002°40'0 0.0
2017-Nov-12 11:30N 39°32' E 002°40'0 0.0
2017-Nov-12 11:00N 39°32' E 002°40'0 0.0
2017-Nov-12 10:30N 39°32' E 002°40'0 0.0
2017-Nov-12 10:00N 39°32' E 002°40'0 0.0
2017-Nov-12 09:30N 39°32' E 002°40'0 0.0
2017-Nov-12 09:00N 39°32' E 002°40'0 0.1
2017-Nov-12 08:30N 39°33' E 002°40'0 0.0
2017-Nov-12 08:00N 39°33' E 002°40'0 0.0
2017-Nov-12 07:27N 39°32' E 002°40'0 0.0
2017-Nov-12 07:00N 39°32' E 002°40'0 0.0
2017-Nov-12 06:30N 39°33' E 002°40'0 0.0
2017-Nov-12 06:00N 39°33' E 002°40'0 0.0
2017-Nov-12 05:30N 39°33' E 002°40'0 0.0
2017-Nov-12 05:00N 39°33' E 002°40'0 0.0
2017-Nov-12 04:30N 39°32' E 002°40'0 0.0
2017-Nov-12 04:00N 39°32' E 002°40'0 0.0
2017-Nov-12 03:30N 39°32' E 002°40'0 0.0
2017-Nov-12 03:00N 39°32' E 002°40'0 0.0
2017-Nov-12 02:27N 39°32' E 002°40'0 0.0
2017-Nov-12 02:00N 39°32' E 002°40'0 0.0
2017-Nov-12 01:27N 39°33' E 002°40'0 0.0
2017-Nov-12 01:00N 39°33' E 002°40'0 0.0
2017-Nov-12 00:30N 39°33' E 002°40'0 0.0
2017-Nov-12 00:00N 39°33' E 002°40'0 0.0
2017-Nov-11 23:30N 39°33' E 002°40'0 0.0
2017-Nov-11 23:00N 39°33' E 002°40'0 0.0
2017-Nov-11 22:30N 39°33' E 002°40'0 0.1
2017-Nov-11 22:00N 39°32' E 002°40'0 0.0
2017-Nov-11 21:30N 39°32' E 002°40'0 0.0
2017-Nov-11 21:00N 39°32' E 002°40'0 0.0
2017-Nov-11 20:30N 39°32' E 002°40'0 0.0
2017-Nov-11 20:00N 39°33' E 002°40'0 0.1
2017-Nov-11 19:30N 39°32' E 002°40'0 0.0
2017-Nov-11 19:00N 39°32' E 002°40'0 0.0
2017-Nov-11 18:30N 39°32' E 002°40'0 0.1
2017-Nov-11 18:00N 39°32' E 002°40'0 0.0
2017-Nov-11 17:30N 39°32' E 002°40'0 0.0
2017-Nov-11 17:00N 39°32' E 002°40'0 0.0
2017-Nov-11 16:24N 39°32' E 002°40'0 0.0
2017-Nov-11 16:00N 39°32' E 002°40'0 0.0
2017-Nov-11 15:30N 39°32' E 002°40'0 0.0
2017-Nov-11 15:00N 39°32' E 002°40'0 0.0
2017-Nov-11 14:30N 39°32' E 002°40'0 0.0
2017-Nov-11 14:00N 39°32' E 002°40'0 0.0
2017-Nov-11 13:30N 39°32' E 002°40'0 0.0
2017-Nov-11 12:57N 39°32' E 002°40'0 0.0
2017-Nov-11 12:30N 39°32' E 002°40'0 0.0
2017-Nov-11 12:00N 39°32' E 002°40'0 0.0
2017-Nov-11 11:30N 39°32' E 002°40'0 0.0
2017-Nov-11 11:00N 39°32' E 002°40'0 0.1
2017-Nov-11 10:30N 39°32' E 002°40'0 0.0
2017-Nov-11 10:00N 39°32' E 002°40'0 0.1
2017-Nov-11 09:30N 39°33' E 002°40'0 0.0
2017-Nov-11 09:00N 39°32' E 002°40'0 0.0
2017-Nov-11 08:30N 39°32' E 002°40'0 0.0
2017-Nov-11 08:00N 39°33' E 002°40'0 0.0
2017-Nov-11 07:30N 39°32' E 002°40'0 0.0
2017-Nov-11 07:01N 39°32' E 002°40'0 0.0
2017-Nov-11 06:30N 39°32' E 002°40'0 0.0
2017-Nov-11 06:00N 39°32' E 002°40'0 0.0
2017-Nov-11 05:30N 39°32' E 002°40'0 0.0
2017-Nov-11 05:00N 39°32' E 002°40'0 0.1
2017-Nov-11 04:30N 39°32' E 002°40'0 0.0
2017-Nov-11 04:00N 39°32' E 002°40'0 0.0
2017-Nov-11 03:30N 39°33' E 002°40'0 0.0
2017-Nov-11 03:00N 39°32' E 002°40'0 0.1
2017-Nov-11 02:30N 39°33' E 002°40'0 0.0
2017-Nov-11 02:00N 39°33' E 002°40'0 0.0
2017-Nov-11 01:30N 39°33' E 002°40'0 0.0
2017-Nov-11 01:00N 39°33' E 002°40'0 0.0
2017-Nov-11 00:30N 39°33' E 002°40'0 0.0
2017-Nov-11 00:00N 39°32' E 002°40'0 0.0
2017-Nov-10 23:30N 39°32' E 002°40'0 0.1
2017-Nov-10 23:00N 39°32' E 002°40'0 0.0
2017-Nov-10 22:30N 39°32' E 002°40'0 0.0
2017-Nov-10 22:00N 39°32' E 002°40'0 0.0
2017-Nov-10 21:30N 39°32' E 002°40'0 0.0
2017-Nov-10 21:00N 39°32' E 002°40'0 0.0
2017-Nov-10 20:30N 39°32' E 002°40'1 1.8
2017-Nov-10 20:00N 39°32' E 002°39'5 9.2
2017-Nov-10 19:30N 39°28' E 002°36'5 9.2
2017-Nov-10 19:00N 39°24' E 002°32'5 9.2
2017-Nov-10 18:29N 39°21' E 002°29'163 8.7
2017-Nov-09 23:51N 37°40' W 000°15'3 8.6
2017-Nov-09 23:30N 37°38' W 000°19'4 8.8
2017-Nov-09 23:00N 37°36' W 000°23'4 8.8
2017-Nov-09 22:30N 37°34' W 000°28'8 8.4
2017-Nov-09 21:33N 37°31' W 000°37'0 8.5
2017-Nov-09 21:30N 37°31' W 000°38'4 8.6
2017-Nov-09 21:00N 37°31' W 000°43'4 8.9
2017-Nov-09 20:30N 37°32' W 000°49'5 9.0
2017-Nov-09 19:59N 37°32' W 000°55'  
Track history (hours):
 
Tides and Currents Weather Stations Pressure Air Temp Water Temp Dewpoint Dewpoint Depression Visibility Wind Speed Wind Dir Waves Ship Positions

M/V Nazim Bey

Last reported at 2017-Nov-19 00:10 UTC. Time now 2017-Nov-23 05:36 UTC.
Position N 37°52' E 015°60'.

Length 81 m; draft 4.9 m.

Type: Cargo ship. MMSI: 271000999.

Date/timePositionNaut miles runAvg speedWind from/ knotsBaromVisibWave heightAir tempDewpointWater temp
2017-Nov-19 00:10N 37°52' E 015°60'2 8.9
2017-Nov-18 23:56N 37°52' E 015°57'4 8.8
2017-Nov-18 23:31N 37°52' E 015°52'4 8.5
2017-Nov-18 22:59N 37°53' E 015°47'4 8.3
2017-Nov-18 22:30N 37°54' E 015°42'4 8.4
2017-Nov-18 22:00N 37°57' E 015°38'4 8.6
2017-Nov-18 21:30N 38°00' E 015°35'4 8.9
2017-Nov-18 21:00N 38°05' E 015°34'4 8.9
2017-Nov-18 20:30N 38°09' E 015°35'510.3
2017-Nov-18 20:00N 38°14' E 015°36'5 9.6
2017-Nov-18 19:30N 38°18' E 015°41'5 9.9
2017-Nov-18 19:00N 38°20' E 015°35'5 9.7
2017-Nov-18 18:30N 38°21' E 015°29'5 9.9
2017-Nov-18 18:00N 38°20' E 015°23'5 9.5
2017-Nov-18 17:30N 38°20' E 015°17'5 9.5
2017-Nov-18 17:00N 38°19' E 015°11'5 9.5
2017-Nov-18 16:30N 38°18' E 015°05'5 9.2
2017-Nov-18 16:00N 38°18' E 014°59'5 9.4
2017-Nov-18 15:30N 38°17' E 014°53'5 9.1
2017-Nov-18 15:00N 38°17' E 014°47'5 9.0
2017-Nov-18 14:30N 38°17' E 014°41'24 8.9
2017-Nov-18 11:50N 38°18' E 014°11'5 9.1
2017-Nov-18 11:19N 38°18' E 014°05'3 9.1
2017-Nov-18 11:00N 38°18' E 014°02'5 9.1
2017-Nov-18 10:30N 38°18' E 013°56'5 9.4
2017-Nov-18 10:01N 38°18' E 013°50'5 9.3
2017-Nov-18 09:31N 38°18' E 013°44'5 9.2
2017-Nov-18 09:00N 38°19' E 013°38'5 9.3
2017-Nov-18 08:30N 38°19' E 013°32'4 8.7
2017-Nov-18 08:00N 38°19' E 013°27'5 9.3
2017-Nov-18 07:31N 38°19' E 013°21'5 9.2
2017-Nov-18 07:01N 38°20' E 013°15'5 9.1
2017-Nov-18 06:30N 38°20' E 013°09'4 8.9
2017-Nov-18 06:00N 38°20' E 013°03'4 8.7
2017-Nov-18 05:31N 38°21' E 012°58'4 8.4
2017-Nov-18 05:01N 38°22' E 012°53'4 8.3
2017-Nov-18 04:29N 38°22' E 012°47'5 8.5
2017-Nov-18 03:53N 38°22' E 012°41'4 8.7
2017-Nov-18 03:28N 38°23' E 012°36'183 8.4
2017-Nov-17 05:34N 38°37' E 008°42'0 8.9
2017-Nov-17 05:30N 38°37' E 008°42'5 8.9
2017-Nov-17 04:59N 38°39' E 008°36'262 7.1
2017-Nov-15 15:58N 39°04' E 003°02'7 8.9
2017-Nov-15 15:11N 39°06' E 002°53'2 9.8
2017-Nov-15 15:00N 39°07' E 002°52'5 9.8
2017-Nov-15 14:30N 39°12' E 002°49'5 9.6
2017-Nov-15 14:00N 39°16' E 002°46'5 9.5
2017-Nov-15 13:30N 39°20' E 002°44'5 9.6
2017-Nov-15 13:00N 39°25' E 002°42'5 9.8
2017-Nov-15 12:30N 39°29' E 002°40'3 6.4
2017-Nov-15 12:00N 39°33' E 002°40'0 0.2
2017-Nov-15 11:30N 39°32' E 002°40'0 0.0
2017-Nov-15 11:00N 39°32' E 002°40'0 0.0
2017-Nov-15 10:30N 39°32' E 002°40'0 0.0
2017-Nov-15 10:00N 39°32' E 002°40'0 0.0
2017-Nov-15 09:30N 39°32' E 002°40'0 0.0
2017-Nov-15 09:00N 39°32' E 002°40'0 0.0
2017-Nov-15 08:30N 39°32' E 002°40'0 0.0
2017-Nov-15 08:00N 39°33' E 002°40'0 0.0
2017-Nov-15 07:30N 39°32' E 002°40'0 0.0
2017-Nov-15 06:54N 39°32' E 002°40'0 0.0
2017-Nov-15 06:30N 39°32' E 002°40'0 0.0
2017-Nov-15 06:00N 39°32' E 002°40'0 0.0
2017-Nov-15 05:30N 39°32' E 002°40'0 0.0
2017-Nov-15 05:00N 39°32' E 002°40'0 0.1
2017-Nov-15 04:30N 39°32' E 002°40'0 0.1
2017-Nov-15 04:00N 39°32' E 002°40'0 0.0
2017-Nov-15 03:30N 39°32' E 002°40'0 0.0
2017-Nov-15 03:00N 39°32' E 002°40'0 0.0
2017-Nov-15 02:30N 39°32' E 002°40'0 0.1
2017-Nov-15 02:00N 39°32' E 002°40'0 0.0
2017-Nov-15 01:27N 39°32' E 002°40'0 0.0
2017-Nov-15 01:00N 39°32' E 002°40'0 0.0
2017-Nov-15 00:27N 39°32' E 002°40'0 0.0
2017-Nov-15 00:00N 39°32' E 002°40'0 0.1
2017-Nov-14 23:30N 39°32' E 002°40'0 0.0
2017-Nov-14 23:00N 39°32' E 002°40'0 0.0
2017-Nov-14 22:30N 39°32' E 002°40'0 0.0
2017-Nov-14 22:00N 39°32' E 002°40'0 0.0
2017-Nov-14 21:30N 39°32' E 002°40'0 0.0
2017-Nov-14 21:00N 39°32' E 002°40'0 0.0
2017-Nov-14 20:30N 39°32' E 002°40'0 0.0
2017-Nov-14 20:00N 39°32' E 002°40'0 0.0
2017-Nov-14 19:30N 39°32' E 002°40'0 0.0
2017-Nov-14 19:00N 39°32' E 002°40'0 0.0
2017-Nov-14 18:30N 39°32' E 002°40'0 0.0
2017-Nov-14 18:00N 39°32' E 002°40'0 0.0
2017-Nov-14 17:30N 39°32' E 002°40'0 0.0
2017-Nov-14 17:00N 39°32' E 002°40'0 0.0
2017-Nov-14 16:30N 39°32' E 002°40'0 0.0
2017-Nov-14 16:00N 39°32' E 002°40'0 0.0
2017-Nov-14 15:30N 39°32' E 002°40'0 0.0
2017-Nov-14 15:00N 39°32' E 002°40'0 0.0
2017-Nov-14 14:30N 39°32' E 002°40'0 0.0
2017-Nov-14 14:00N 39°32' E 002°40'0 0.0
2017-Nov-14 13:30N 39°32' E 002°40'0 0.0
2017-Nov-14 13:00N 39°32' E 002°40'0 0.1
2017-Nov-14 12:30N 39°32' E 002°40'0 0.1
2017-Nov-14 12:00N 39°32' E 002°40'0 0.0
2017-Nov-14 11:30N 39°32' E 002°40'0 0.1
2017-Nov-14 11:00N 39°32' E 002°40'0 0.0
2017-Nov-14 10:27N 39°32' E 002°40'0 0.0
2017-Nov-14 10:00N 39°32' E 002°40'0 0.0
2017-Nov-14 09:30N 39°32' E 002°40'0 0.0
2017-Nov-14 09:00N 39°32' E 002°40'0 0.1
2017-Nov-14 08:30N 39°32' E 002°40'0 0.1
2017-Nov-14 08:00N 39°32' E 002°40'0 0.0
2017-Nov-14 07:27N 39°32' E 002°40'0 0.0
2017-Nov-14 07:00N 39°32' E 002°40'0 0.0
2017-Nov-14 06:30N 39°32' E 002°40'0 0.0
2017-Nov-14 05:57N 39°32' E 002°40'0 0.1
2017-Nov-14 05:30N 39°32' E 002°40'0 0.0
2017-Nov-14 05:00N 39°32' E 002°40'0 0.0
2017-Nov-14 04:30N 39°32' E 002°40'0 0.0
2017-Nov-14 04:00N 39°32' E 002°40'0 0.0
2017-Nov-14 03:27N 39°32' E 002°40'0 0.0
2017-Nov-14 03:00N 39°32' E 002°40'0 0.0
2017-Nov-14 02:30N 39°32' E 002°40'0 0.1
2017-Nov-14 02:00N 39°32' E 002°40'0 0.1
2017-Nov-14 01:30N 39°32' E 002°40'0 0.0
2017-Nov-14 01:00N 39°32' E 002°40'0 0.0
2017-Nov-14 00:30N 39°32' E 002°40'0 0.0
2017-Nov-14 00:00N 39°32' E 002°40'0 0.0
2017-Nov-13 23:27N 39°32' E 002°40'0 0.0
2017-Nov-13 23:00N 39°32' E 002°40'0 0.0
2017-Nov-13 22:30N 39°32' E 002°40'0 0.1
2017-Nov-13 21:57N 39°32' E 002°40'0 0.0
2017-Nov-13 01:57N 39°33' E 002°40'0 0.0
2017-Nov-13 01:30N 39°33' E 002°40'0 0.0
2017-Nov-13 00:57N 39°33' E 002°40'0 0.0
2017-Nov-13 00:30N 39°33' E 002°40'0 0.0
2017-Nov-13 00:00N 39°33' E 002°40'0 0.0
2017-Nov-12 23:21N 39°33' E 002°40'0 0.0
2017-Nov-12 22:57N 39°33' E 002°40'0 0.0
2017-Nov-12 22:27N 39°33' E 002°40'0 0.0
2017-Nov-12 22:00N 39°33' E 002°40'0 0.0
2017-Nov-12 21:30N 39°33' E 002°40'0 0.0
2017-Nov-12 21:00N 39°33' E 002°40'0 0.0
2017-Nov-12 20:27N 39°33' E 002°40'0 0.0
2017-Nov-12 20:00N 39°33' E 002°40'0 0.0
2017-Nov-12 19:30N 39°33' E 002°40'0 0.0
2017-Nov-12 19:00N 39°33' E 002°40'0 0.0
2017-Nov-12 18:30N 39°33' E 002°40'0 0.0
2017-Nov-12 18:00N 39°33' E 002°40'0 0.0
2017-Nov-12 17:30N 39°33' E 002°40'0 0.0
2017-Nov-12 17:00N 39°33' E 002°40'0 0.0
2017-Nov-12 16:30N 39°32' E 002°40'0 0.0
2017-Nov-12 16:00N 39°32' E 002°40'0 0.1
2017-Nov-12 15:30N 39°32' E 002°40'0 0.0
2017-Nov-12 14:57N 39°32' E 002°40'0 0.0
2017-Nov-12 14:27N 39°32' E 002°40'0 0.0
2017-Nov-12 14:00N 39°32' E 002°40'0 0.0
2017-Nov-12 13:30N 39°32' E 002°40'0 0.0
2017-Nov-12 13:00N 39°32' E 002°40'0 0.0
2017-Nov-12 12:30N 39°32' E 002°40'0 0.0
2017-Nov-12 11:57N 39°32' E 002°40'0 0.0
2017-Nov-12 11:30N 39°32' E 002°40'0 0.0
2017-Nov-12 11:00N 39°32' E 002°40'0 0.0
2017-Nov-12 10:30N 39°32' E 002°40'0 0.0
2017-Nov-12 10:00N 39°32' E 002°40'0 0.0
2017-Nov-12 09:30N 39°32' E 002°40'0 0.0
2017-Nov-12 09:00N 39°32' E 002°40'0 0.1
2017-Nov-12 08:30N 39°33' E 002°40'0 0.0
2017-Nov-12 08:00N 39°33' E 002°40'0 0.0
2017-Nov-12 07:27N 39°32' E 002°40'0 0.0
2017-Nov-12 07:00N 39°32' E 002°40'0 0.0
2017-Nov-12 06:30N 39°33' E 002°40'0 0.0
2017-Nov-12 06:00N 39°33' E 002°40'0 0.0
2017-Nov-12 05:30N 39°33' E 002°40'0 0.0
2017-Nov-12 05:00N 39°33' E 002°40'0 0.0
2017-Nov-12 04:30N 39°32' E 002°40'0 0.0
2017-Nov-12 04:00N 39°32' E 002°40'0 0.0
2017-Nov-12 03:30N 39°32' E 002°40'0 0.0
2017-Nov-12 03:00N 39°32' E 002°40'0 0.0
2017-Nov-12 02:27N 39°32' E 002°40'0 0.0
2017-Nov-12 02:00N 39°32' E 002°40'0 0.0
2017-Nov-12 01:27N 39°33' E 002°40'0 0.0
2017-Nov-12 01:00N 39°33' E 002°40'0 0.0
2017-Nov-12 00:30N 39°33' E 002°40'0 0.0
2017-Nov-12 00:00N 39°33' E 002°40'0 0.0
2017-Nov-11 23:30N 39°33' E 002°40'0 0.0
2017-Nov-11 23:00N 39°33' E 002°40'0 0.0
2017-Nov-11 22:30N 39°33' E 002°40'0 0.1
2017-Nov-11 22:00N 39°32' E 002°40'0 0.0
2017-Nov-11 21:30N 39°32' E 002°40'0 0.0
2017-Nov-11 21:00N 39°32' E 002°40'0 0.0
2017-Nov-11 20:30N 39°32' E 002°40'0 0.0
2017-Nov-11 20:00N 39°33' E 002°40'0 0.1
2017-Nov-11 19:30N 39°32' E 002°40'0 0.0
2017-Nov-11 19:00N 39°32' E 002°40'0 0.0
2017-Nov-11 18:30N 39°32' E 002°40'0 0.1
2017-Nov-11 18:00N 39°32' E 002°40'0 0.0
2017-Nov-11 17:30N 39°32' E 002°40'0 0.0
2017-Nov-11 17:00N 39°32' E 002°40'0 0.0
2017-Nov-11 16:24N 39°32' E 002°40'0 0.0
2017-Nov-11 16:00N 39°32' E 002°40'0 0.0
2017-Nov-11 15:30N 39°32' E 002°40'0 0.0
2017-Nov-11 15:00N 39°32' E 002°40'0 0.0
2017-Nov-11 14:30N 39°32' E 002°40'0 0.0
2017-Nov-11 14:00N 39°32' E 002°40'0 0.0
2017-Nov-11 13:30N 39°32' E 002°40'0 0.0
2017-Nov-11 12:57N 39°32' E 002°40'0 0.0
2017-Nov-11 12:30N 39°32' E 002°40'0 0.0
2017-Nov-11 12:00N 39°32' E 002°40'0 0.0
2017-Nov-11 11:30N 39°32' E 002°40'0 0.0
2017-Nov-11 11:00N 39°32' E 002°40'0 0.1
2017-Nov-11 10:30N 39°32' E 002°40'0 0.0
2017-Nov-11 10:00N 39°32' E 002°40'0 0.1
2017-Nov-11 09:30N 39°33' E 002°40'0 0.0
2017-Nov-11 09:00N 39°32' E 002°40'0 0.0
2017-Nov-11 08:30N 39°32' E 002°40'0 0.0
2017-Nov-11 08:00N 39°33' E 002°40'0 0.0
2017-Nov-11 07:30N 39°32' E 002°40'0 0.0
2017-Nov-11 07:01N 39°32' E 002°40'0 0.0
2017-Nov-11 06:30N 39°32' E 002°40'0 0.0
2017-Nov-11 06:00N 39°32' E 002°40'0 0.0
2017-Nov-11 05:30N 39°32' E 002°40'0 0.0
2017-Nov-11 05:00N 39°32' E 002°40'0 0.1
2017-Nov-11 04:30N 39°32' E 002°40'0 0.0
2017-Nov-11 04:00N 39°32' E 002°40'0 0.0
2017-Nov-11 03:30N 39°33' E 002°40'0 0.0
2017-Nov-11 03:00N 39°32' E 002°40'0 0.1
2017-Nov-11 02:30N 39°33' E 002°40'0 0.0
2017-Nov-11 02:00N 39°33' E 002°40'0 0.0
2017-Nov-11 01:30N 39°33' E 002°40'0 0.0
2017-Nov-11 01:00N 39°33' E 002°40'0 0.0
2017-Nov-11 00:30N 39°33' E 002°40'0 0.0
2017-Nov-11 00:00N 39°32' E 002°40'0 0.0
2017-Nov-10 23:30N 39°32' E 002°40'0 0.1
2017-Nov-10 23:00N 39°32' E 002°40'0 0.0
2017-Nov-10 22:30N 39°32' E 002°40'0 0.0
2017-Nov-10 22:00N 39°32' E 002°40'0 0.0
2017-Nov-10 21:30N 39°32' E 002°40'0 0.0
2017-Nov-10 21:00N 39°32' E 002°40'0 0.0
2017-Nov-10 20:30N 39°32' E 002°40'1 1.8
2017-Nov-10 20:00N 39°32' E 002°39'5 9.2
2017-Nov-10 19:30N 39°28' E 002°36'5 9.2
2017-Nov-10 19:00N 39°24' E 002°32'5 9.2
2017-Nov-10 18:29N 39°21' E 002°29'163 8.7
2017-Nov-09 23:51N 37°40' W 000°15'3 8.6
2017-Nov-09 23:30N 37°38' W 000°19'4 8.8
2017-Nov-09 23:00N 37°36' W 000°23'4 8.8
2017-Nov-09 22:30N 37°34' W 000°28'8 8.4
2017-Nov-09 21:33N 37°31' W 000°37'0 8.5
2017-Nov-09 21:30N 37°31' W 000°38'4 8.6
2017-Nov-09 21:00N 37°31' W 000°43'4 8.9
2017-Nov-09 20:30N 37°32' W 000°49'5 9.0
2017-Nov-09 19:59N 37°32' W 000°55'  

Dump ship's entire track history